sensor_id;sensor_type;location;lat;lon;timestamp;P1;durP1;ratioP1;P2;durP2;ratioP2
35114;SDS011;21292;52.416;13.046;2022-09-09T00:00:21;26.63;;;16.30;;
35114;SDS011;21292;52.416;13.046;2022-09-09T00:02:54;21.17;;;15.32;;
35114;SDS011;21292;52.416;13.046;2022-09-09T00:05:29;26.77;;;15.43;;
35114;SDS011;21292;52.416;13.046;2022-09-09T00:07:59;29.33;;;16.35;;
35114;SDS011;21292;52.416;13.046;2022-09-09T00:10:32;23.38;;;16.10;;
35114;SDS011;21292;52.416;13.046;2022-09-09T00:13:05;25.75;;;17.42;;
35114;SDS011;21292;52.416;13.046;2022-09-09T00:15:45;26.52;;;16.85;;
35114;SDS011;21292;52.416;13.046;2022-09-09T00:18:23;27.65;;;17.27;;
35114;SDS011;21292;52.416;13.046;2022-09-09T00:20:57;30.58;;;18.45;;
35114;SDS011;21292;52.416;13.046;2022-09-09T00:23:30;24.40;;;18.05;;
35114;SDS011;21292;52.416;13.046;2022-09-09T00:26:02;28.90;;;17.98;;
35114;SDS011;21292;52.416;13.046;2022-09-09T00:28:33;27.15;;;19.27;;
35114;SDS011;21292;52.416;13.046;2022-09-09T00:31:10;25.88;;;18.65;;
35114;SDS011;21292;52.416;13.046;2022-09-09T00:33:43;25.45;;;17.67;;
35114;SDS011;21292;52.416;13.046;2022-09-09T00:36:13;30.25;;;19.85;;
35114;SDS011;21292;52.416;13.046;2022-09-09T00:38:45;27.75;;;18.65;;
35114;SDS011;21292;52.416;13.046;2022-09-09T00:41:19;31.52;;;19.85;;
35114;SDS011;21292;52.416;13.046;2022-09-09T00:43:54;33.92;;;20.25;;
35114;SDS011;21292;52.416;13.046;2022-09-09T00:46:33;31.65;;;19.73;;
35114;SDS011;21292;52.416;13.046;2022-09-09T00:49:15;32.65;;;20.70;;
35114;SDS011;21292;52.416;13.046;2022-09-09T00:51:55;34.88;;;19.65;;
35114;SDS011;21292;52.416;13.046;2022-09-09T00:54:32;33.10;;;20.70;;
35114;SDS011;21292;52.416;13.046;2022-09-09T00:57:10;31.30;;;19.88;;
35114;SDS011;21292;52.416;13.046;2022-09-09T00:59:45;31.52;;;19.42;;
35114;SDS011;21292;52.416;13.046;2022-09-09T01:02:18;35.03;;;20.30;;
35114;SDS011;21292;52.416;13.046;2022-09-09T01:04:56;35.88;;;21.33;;
35114;SDS011;21292;52.416;13.046;2022-09-09T01:07:27;35.10;;;18.73;;
35114;SDS011;21292;52.416;13.046;2022-09-09T01:09:57;33.15;;;19.80;;
35114;SDS011;21292;52.416;13.046;2022-09-09T01:12:32;33.05;;;19.95;;
35114;SDS011;21292;52.416;13.046;2022-09-09T01:15:08;37.00;;;21.67;;
35114;SDS011;21292;52.416;13.046;2022-09-09T01:17:46;31.08;;;21.05;;
35114;SDS011;21292;52.416;13.046;2022-09-09T01:20:23;32.67;;;19.70;;
35114;SDS011;21292;52.416;13.046;2022-09-09T01:22:56;33.30;;;21.10;;
35114;SDS011;21292;52.416;13.046;2022-09-09T01:28:53;29.60;;;19.70;;
35114;SDS011;21292;52.416;13.046;2022-09-09T01:31:22;30.98;;;20.35;;
35114;SDS011;21292;52.416;13.046;2022-09-09T01:36:24;34.83;;;19.80;;
35114;SDS011;21292;52.416;13.046;2022-09-09T01:38:57;31.67;;;19.02;;
35114;SDS011;21292;52.416;13.046;2022-09-09T01:41:26;37.63;;;21.27;;
35114;SDS011;21292;52.416;13.046;2022-09-09T01:43:56;33.25;;;20.35;;
35114;SDS011;21292;52.416;13.046;2022-09-09T01:46:25;32.95;;;19.98;;
35114;SDS011;21292;52.416;13.046;2022-09-09T01:48:56;32.67;;;20.27;;
35114;SDS011;21292;52.416;13.046;2022-09-09T01:51:25;37.45;;;21.10;;
35114;SDS011;21292;52.416;13.046;2022-09-09T01:53:58;38.70;;;21.10;;
35114;SDS011;21292;52.416;13.046;2022-09-09T01:56:30;35.95;;;20.08;;
35114;SDS011;21292;52.416;13.046;2022-09-09T01:59:09;33.22;;;21.08;;
35114;SDS011;21292;52.416;13.046;2022-09-09T02:01:50;31.88;;;19.60;;
35114;SDS011;21292;52.416;13.046;2022-09-09T02:04:32;37.80;;;21.00;;
35114;SDS011;21292;52.416;13.046;2022-09-09T02:07:06;36.22;;;20.20;;
35114;SDS011;21292;52.416;13.046;2022-09-09T02:09:42;31.77;;;20.80;;
35114;SDS011;21292;52.416;13.046;2022-09-09T02:12:13;37.72;;;20.63;;
35114;SDS011;21292;52.416;13.046;2022-09-09T02:14:46;38.28;;;20.77;;
35114;SDS011;21292;52.416;13.046;2022-09-09T02:17:18;37.00;;;21.15;;
35114;SDS011;21292;52.416;13.046;2022-09-09T02:19:52;38.58;;;21.48;;
35114;SDS011;21292;52.416;13.046;2022-09-09T02:22:24;38.83;;;21.23;;
35114;SDS011;21292;52.416;13.046;2022-09-09T02:24:57;35.10;;;21.13;;
35114;SDS011;21292;52.416;13.046;2022-09-09T02:27:32;41.63;;;21.67;;
35114;SDS011;21292;52.416;13.046;2022-09-09T02:30:03;37.35;;;22.23;;
35114;SDS011;21292;52.416;13.046;2022-09-09T02:35:02;39.17;;;22.17;;
35114;SDS011;21292;52.416;13.046;2022-09-09T02:37:34;40.13;;;23.25;;
35114;SDS011;21292;52.416;13.046;2022-09-09T02:40:05;39.38;;;20.90;;
35114;SDS011;21292;52.416;13.046;2022-09-09T02:42:38;39.78;;;21.77;;
35114;SDS011;21292;52.416;13.046;2022-09-09T02:45:09;43.22;;;22.77;;
35114;SDS011;21292;52.416;13.046;2022-09-09T02:47:43;39.08;;;22.20;;
35114;SDS011;21292;52.416;13.046;2022-09-09T02:50:17;40.85;;;22.80;;
35114;SDS011;21292;52.416;13.046;2022-09-09T02:52:52;41.70;;;24.30;;
35114;SDS011;21292;52.416;13.046;2022-09-09T02:55:29;42.58;;;22.73;;
35114;SDS011;21292;52.416;13.046;2022-09-09T02:58:04;42.70;;;21.75;;
35114;SDS011;21292;52.416;13.046;2022-09-09T03:00:38;39.08;;;21.75;;
35114;SDS011;21292;52.416;13.046;2022-09-09T03:03:07;39.83;;;23.65;;
35114;SDS011;21292;52.416;13.046;2022-09-09T03:05:38;40.90;;;21.80;;
35114;SDS011;21292;52.416;13.046;2022-09-09T03:08:11;38.97;;;21.08;;
35114;SDS011;21292;52.416;13.046;2022-09-09T03:10:40;38.42;;;21.25;;
35114;SDS011;21292;52.416;13.046;2022-09-09T03:13:10;38.92;;;21.60;;
35114;SDS011;21292;52.416;13.046;2022-09-09T03:15:43;38.95;;;20.67;;
35114;SDS011;21292;52.416;13.046;2022-09-09T03:20:41;37.00;;;20.58;;
35114;SDS011;21292;52.416;13.046;2022-09-09T03:23:17;37.05;;;20.60;;
35114;SDS011;21292;52.416;13.046;2022-09-09T03:25:46;32.78;;;20.77;;
35114;SDS011;21292;52.416;13.046;2022-09-09T03:28:15;40.53;;;20.10;;
35114;SDS011;21292;52.416;13.046;2022-09-09T03:30:45;31.38;;;19.23;;
35114;SDS011;21292;52.416;13.046;2022-09-09T03:33:15;33.53;;;20.40;;
35114;SDS011;21292;52.416;13.046;2022-09-09T03:35:45;32.05;;;18.27;;
35114;SDS011;21292;52.416;13.046;2022-09-09T03:38:15;29.83;;;17.42;;
35114;SDS011;21292;52.416;13.046;2022-09-09T03:40:50;28.50;;;16.75;;
35114;SDS011;21292;52.416;13.046;2022-09-09T03:43:21;28.15;;;16.80;;
35114;SDS011;21292;52.416;13.046;2022-09-09T03:45:51;26.35;;;16.63;;
35114;SDS011;21292;52.416;13.046;2022-09-09T03:48:22;34.05;;;16.73;;
35114;SDS011;21292;52.416;13.046;2022-09-09T03:50:51;24.08;;;16.35;;
35114;SDS011;21292;52.416;13.046;2022-09-09T03:53:21;27.02;;;16.13;;
35114;SDS011;21292;52.416;13.046;2022-09-09T03:55:51;31.02;;;17.25;;
35114;SDS011;21292;52.416;13.046;2022-09-09T03:58:22;32.42;;;16.00;;
35114;SDS011;21292;52.416;13.046;2022-09-09T04:00:55;31.00;;;16.73;;
35114;SDS011;21292;52.416;13.046;2022-09-09T04:03:24;25.63;;;15.90;;
35114;SDS011;21292;52.416;13.046;2022-09-09T04:05:54;27.30;;;16.35;;
35114;SDS011;21292;52.416;13.046;2022-09-09T04:08:24;27.92;;;15.82;;
35114;SDS011;21292;52.416;13.046;2022-09-09T04:10:53;30.98;;;16.20;;
35114;SDS011;21292;52.416;13.046;2022-09-09T04:13:24;28.35;;;16.63;;
35114;SDS011;21292;52.416;13.046;2022-09-09T04:15:56;31.67;;;16.23;;
35114;SDS011;21292;52.416;13.046;2022-09-09T04:18:28;27.92;;;16.95;;
35114;SDS011;21292;52.416;13.046;2022-09-09T04:20:57;29.98;;;16.90;;
35114;SDS011;21292;52.416;13.046;2022-09-09T04:23:26;28.02;;;16.33;;
35114;SDS011;21292;52.416;13.046;2022-09-09T04:25:57;29.55;;;16.63;;
35114;SDS011;21292;52.416;13.046;2022-09-09T04:28:27;28.17;;;15.93;;
35114;SDS011;21292;52.416;13.046;2022-09-09T04:30:58;28.88;;;15.68;;
35114;SDS011;21292;52.416;13.046;2022-09-09T04:33:32;26.30;;;15.85;;
35114;SDS011;21292;52.416;13.046;2022-09-09T04:36:06;25.85;;;16.10;;
35114;SDS011;21292;52.416;13.046;2022-09-09T04:38:35;35.05;;;15.43;;
35114;SDS011;21292;52.416;13.046;2022-09-09T04:41:04;24.13;;;15.38;;
35114;SDS011;21292;52.416;13.046;2022-09-09T04:43:34;22.00;;;15.18;;
35114;SDS011;21292;52.416;13.046;2022-09-09T04:46:04;22.77;;;15.02;;
35114;SDS011;21292;52.416;13.046;2022-09-09T04:48:33;29.80;;;14.93;;
35114;SDS011;21292;52.416;13.046;2022-09-09T04:51:03;21.48;;;14.02;;
35114;SDS011;21292;52.416;13.046;2022-09-09T04:53:36;23.90;;;14.07;;
35114;SDS011;21292;52.416;13.046;2022-09-09T04:56:06;23.67;;;14.68;;
35114;SDS011;21292;52.416;13.046;2022-09-09T04:58:37;21.98;;;15.23;;
35114;SDS011;21292;52.416;13.046;2022-09-09T05:01:09;21.65;;;13.77;;
35114;SDS011;21292;52.416;13.046;2022-09-09T05:03:39;23.10;;;14.63;;
35114;SDS011;21292;52.416;13.046;2022-09-09T05:06:08;23.40;;;13.98;;
35114;SDS011;21292;52.416;13.046;2022-09-09T05:08:38;23.95;;;13.25;;
35114;SDS011;21292;52.416;13.046;2022-09-09T05:11:13;20.90;;;12.15;;
35114;SDS011;21292;52.416;13.046;2022-09-09T05:13:42;18.20;;;10.60;;
35114;SDS011;21292;52.416;13.046;2022-09-09T05:16:12;10.75;;;8.23;;
35114;SDS011;21292;52.416;13.046;2022-09-09T05:18:41;11.50;;;7.03;;
35114;SDS011;21292;52.416;13.046;2022-09-09T05:21:10;7.22;;;6.30;;
35114;SDS011;21292;52.416;13.046;2022-09-09T05:23:39;10.50;;;6.63;;
35114;SDS011;21292;52.416;13.046;2022-09-09T05:26:09;8.88;;;5.63;;
35114;SDS011;21292;52.416;13.046;2022-09-09T05:28:43;9.40;;;5.40;;
35114;SDS011;21292;52.416;13.046;2022-09-09T05:31:13;7.93;;;5.05;;
35114;SDS011;21292;52.416;13.046;2022-09-09T05:33:43;8.00;;;5.63;;
35114;SDS011;21292;52.416;13.046;2022-09-09T05:36:14;7.82;;;4.40;;
35114;SDS011;21292;52.416;13.046;2022-09-09T05:38:43;6.00;;;4.22;;
35114;SDS011;21292;52.416;13.046;2022-09-09T05:41:12;6.57;;;4.07;;
35114;SDS011;21292;52.416;13.046;2022-09-09T05:43:42;7.75;;;4.55;;
35114;SDS011;21292;52.416;13.046;2022-09-09T05:46:12;9.30;;;4.40;;
35114;SDS011;21292;52.416;13.046;2022-09-09T05:48:43;5.47;;;3.88;;
35114;SDS011;21292;52.416;13.046;2022-09-09T05:51:13;7.93;;;3.85;;
35114;SDS011;21292;52.416;13.046;2022-09-09T05:53:44;10.40;;;4.22;;
35114;SDS011;21292;52.416;13.046;2022-09-09T05:56:13;6.22;;;3.40;;
35114;SDS011;21292;52.416;13.046;2022-09-09T05:58:44;8.98;;;4.15;;
35114;SDS011;21292;52.416;13.046;2022-09-09T06:01:15;11.07;;;4.10;;
35114;SDS011;21292;52.416;13.046;2022-09-09T06:03:45;8.48;;;3.80;;
35114;SDS011;21292;52.416;13.046;2022-09-09T06:06:14;10.45;;;4.15;;
35114;SDS011;21292;52.416;13.046;2022-09-09T06:08:48;3.15;;;2.85;;
35114;SDS011;21292;52.416;13.046;2022-09-09T06:11:18;6.03;;;2.85;;
35114;SDS011;21292;52.416;13.046;2022-09-09T06:13:48;4.00;;;3.03;;
35114;SDS011;21292;52.416;13.046;2022-09-09T06:16:22;5.80;;;2.63;;
35114;SDS011;21292;52.416;13.046;2022-09-09T06:18:51;6.40;;;2.67;;
35114;SDS011;21292;52.416;13.046;2022-09-09T06:21:21;2.88;;;2.17;;
35114;SDS011;21292;52.416;13.046;2022-09-09T06:23:50;5.55;;;2.58;;
35114;SDS011;21292;52.416;13.046;2022-09-09T06:26:26;3.22;;;2.28;;
35114;SDS011;21292;52.416;13.046;2022-09-09T06:28:55;4.68;;;2.00;;
35114;SDS011;21292;52.416;13.046;2022-09-09T06:31:26;4.95;;;2.22;;
35114;SDS011;21292;52.416;13.046;2022-09-09T06:33:57;4.32;;;2.28;;
35114;SDS011;21292;52.416;13.046;2022-09-09T06:36:26;3.47;;;2.15;;
35114;SDS011;21292;52.416;13.046;2022-09-09T06:38:55;7.22;;;2.40;;
35114;SDS011;21292;52.416;13.046;2022-09-09T06:41:25;4.63;;;2.13;;
35114;SDS011;21292;52.416;13.046;2022-09-09T06:43:54;5.82;;;2.42;;
35114;SDS011;21292;52.416;13.046;2022-09-09T06:46:23;3.22;;;2.22;;
35114;SDS011;21292;52.416;13.046;2022-09-09T06:48:55;2.88;;;1.92;;
35114;SDS011;21292;52.416;13.046;2022-09-09T06:51:26;3.78;;;1.80;;
35114;SDS011;21292;52.416;13.046;2022-09-09T06:53:55;3.15;;;1.80;;
35114;SDS011;21292;52.416;13.046;2022-09-09T06:56:25;4.63;;;1.90;;
35114;SDS011;21292;52.416;13.046;2022-09-09T06:58:55;5.32;;;1.98;;
35114;SDS011;21292;52.416;13.046;2022-09-09T07:01:25;3.97;;;2.40;;
35114;SDS011;21292;52.416;13.046;2022-09-09T07:03:56;6.05;;;2.22;;
35114;SDS011;21292;52.416;13.046;2022-09-09T07:06:25;3.72;;;1.95;;
35114;SDS011;21292;52.416;13.046;2022-09-09T07:08:56;3.13;;;2.28;;
35114;SDS011;21292;52.416;13.046;2022-09-09T07:11:26;3.78;;;1.70;;
35114;SDS011;21292;52.416;13.046;2022-09-09T07:13:56;6.32;;;2.03;;
35114;SDS011;21292;52.416;13.046;2022-09-09T07:16:25;3.70;;;2.28;;
35114;SDS011;21292;52.416;13.046;2022-09-09T07:18:57;4.03;;;2.05;;
35114;SDS011;21292;52.416;13.046;2022-09-09T07:21:25;3.60;;;1.90;;
35114;SDS011;21292;52.416;13.046;2022-09-09T07:23:54;5.97;;;2.22;;
35114;SDS011;21292;52.416;13.046;2022-09-09T07:26:23;6.60;;;2.10;;
35114;SDS011;21292;52.416;13.046;2022-09-09T07:28:52;5.22;;;1.90;;
35114;SDS011;21292;52.416;13.046;2022-09-09T07:31:20;2.83;;;1.80;;
35114;SDS011;21292;52.416;13.046;2022-09-09T07:33:50;3.85;;;2.10;;
35114;SDS011;21292;52.416;13.046;2022-09-09T07:36:20;2.45;;;1.70;;
35114;SDS011;21292;52.416;13.046;2022-09-09T07:38:50;3.03;;;1.85;;
35114;SDS011;21292;52.416;13.046;2022-09-09T07:41:21;8.35;;;2.60;;
35114;SDS011;21292;52.416;13.046;2022-09-09T07:43:50;2.03;;;1.83;;
35114;SDS011;21292;52.416;13.046;2022-09-09T07:46:21;5.47;;;2.40;;
35114;SDS011;21292;52.416;13.046;2022-09-09T07:48:51;8.05;;;2.45;;
35114;SDS011;21292;52.416;13.046;2022-09-09T07:51:22;4.88;;;1.80;;
35114;SDS011;21292;52.416;13.046;2022-09-09T07:53:52;6.00;;;1.70;;
35114;SDS011;21292;52.416;13.046;2022-09-09T07:56:21;2.30;;;1.50;;
35114;SDS011;21292;52.416;13.046;2022-09-09T07:58:50;3.28;;;1.52;;
35114;SDS011;21292;52.416;13.046;2022-09-09T08:01:21;5.13;;;2.35;;
35114;SDS011;21292;52.416;13.046;2022-09-09T08:03:53;6.75;;;2.00;;
35114;SDS011;21292;52.416;13.046;2022-09-09T08:06:24;3.33;;;2.05;;
35114;SDS011;21292;52.416;13.046;2022-09-09T08:08:53;5.97;;;2.33;;
35114;SDS011;21292;52.416;13.046;2022-09-09T08:11:22;6.75;;;1.98;;
35114;SDS011;21292;52.416;13.046;2022-09-09T08:13:52;5.07;;;1.95;;
35114;SDS011;21292;52.416;13.046;2022-09-09T08:16:28;4.05;;;1.65;;
35114;SDS011;21292;52.416;13.046;2022-09-09T08:18:58;4.63;;;2.00;;
35114;SDS011;21292;52.416;13.046;2022-09-09T08:21:29;3.63;;;1.92;;
35114;SDS011;21292;52.416;13.046;2022-09-09T08:23:59;5.90;;;2.35;;
35114;SDS011;21292;52.416;13.046;2022-09-09T08:26:29;4.10;;;1.70;;
35114;SDS011;21292;52.416;13.046;2022-09-09T08:28:58;5.68;;;1.95;;
35114;SDS011;21292;52.416;13.046;2022-09-09T08:31:27;5.53;;;2.10;;
35114;SDS011;21292;52.416;13.046;2022-09-09T08:33:57;4.50;;;2.03;;
35114;SDS011;21292;52.416;13.046;2022-09-09T08:36:29;6.10;;;1.88;;
35114;SDS011;21292;52.416;13.046;2022-09-09T08:39:00;7.40;;;2.05;;
35114;SDS011;21292;52.416;13.046;2022-09-09T08:41:31;4.82;;;2.15;;
35114;SDS011;21292;52.416;13.046;2022-09-09T08:44:06;4.93;;;1.42;;
35114;SDS011;21292;52.416;13.046;2022-09-09T08:46:40;4.47;;;1.90;;
35114;SDS011;21292;52.416;13.046;2022-09-09T08:49:19;3.35;;;1.58;;
35114;SDS011;21292;52.416;13.046;2022-09-09T08:52:00;6.53;;;1.67;;
35114;SDS011;21292;52.416;13.046;2022-09-09T08:54:33;5.90;;;2.00;;
35114;SDS011;21292;52.416;13.046;2022-09-09T08:57:19;4.45;;;1.90;;
35114;SDS011;21292;52.416;13.046;2022-09-09T08:59:49;2.95;;;1.63;;
35114;SDS011;21292;52.416;13.046;2022-09-09T09:02:20;3.30;;;1.55;;
35114;SDS011;21292;52.416;13.046;2022-09-09T09:04:54;3.13;;;1.55;;
35114;SDS011;21292;52.416;13.046;2022-09-09T09:07:31;4.43;;;1.92;;
35114;SDS011;21292;52.416;13.046;2022-09-09T09:10:08;4.53;;;1.63;;
35114;SDS011;21292;52.416;13.046;2022-09-09T09:12:59;3.60;;;1.50;;
35114;SDS011;21292;52.416;13.046;2022-09-09T09:15:30;3.70;;;1.80;;
35114;SDS011;21292;52.416;13.046;2022-09-09T09:17:59;3.00;;;1.30;;
35114;SDS011;21292;52.416;13.046;2022-09-09T09:20:27;4.40;;;1.70;;
35114;SDS011;21292;52.416;13.046;2022-09-09T09:23:03;3.97;;;2.13;;
35114;SDS011;21292;52.416;13.046;2022-09-09T09:25:33;6.00;;;1.30;;
35114;SDS011;21292;52.416;13.046;2022-09-09T09:28:07;3.50;;;1.17;;
35114;SDS011;21292;52.416;13.046;2022-09-09T09:30:44;2.25;;;1.38;;
35114;SDS011;21292;52.416;13.046;2022-09-09T09:35:45;1.98;;;1.40;;
35114;SDS011;21292;52.416;13.046;2022-09-09T09:38:17;4.30;;;1.30;;
35114;SDS011;21292;52.416;13.046;2022-09-09T09:41:06;5.88;;;1.67;;
35114;SDS011;21292;52.416;13.046;2022-09-09T09:43:35;4.78;;;1.83;;
35114;SDS011;21292;52.416;13.046;2022-09-09T09:46:04;5.43;;;1.65;;
35114;SDS011;21292;52.416;13.046;2022-09-09T09:48:43;4.28;;;1.30;;
35114;SDS011;21292;52.416;13.046;2022-09-09T09:51:14;2.17;;;1.13;;
35114;SDS011;21292;52.416;13.046;2022-09-09T09:53:47;5.05;;;1.50;;
35114;SDS011;21292;52.416;13.046;2022-09-09T09:56:16;4.63;;;1.45;;
35114;SDS011;21292;52.416;13.046;2022-09-09T09:58:48;4.65;;;1.35;;
35114;SDS011;21292;52.416;13.046;2022-09-09T10:01:18;4.95;;;1.70;;
35114;SDS011;21292;52.416;13.046;2022-09-09T10:03:50;6.10;;;1.50;;
35114;SDS011;21292;52.416;13.046;2022-09-09T10:06:30;5.72;;;1.48;;
35114;SDS011;21292;52.416;13.046;2022-09-09T10:09:02;2.95;;;1.60;;
35114;SDS011;21292;52.416;13.046;2022-09-09T10:11:35;4.07;;;1.50;;
35114;SDS011;21292;52.416;13.046;2022-09-09T10:14:12;3.55;;;1.33;;
35114;SDS011;21292;52.416;13.046;2022-09-09T10:16:51;4.40;;;1.35;;
35114;SDS011;21292;52.416;13.046;2022-09-09T10:19:29;4.50;;;1.60;;
35114;SDS011;21292;52.416;13.046;2022-09-09T10:22:05;2.15;;;1.00;;
35114;SDS011;21292;52.416;13.046;2022-09-09T10:24:51;7.18;;;1.58;;
35114;SDS011;21292;52.416;13.046;2022-09-09T10:27:30;3.33;;;1.15;;
35114;SDS011;21292;52.416;13.046;2022-09-09T10:30:04;4.28;;;1.40;;
35114;SDS011;21292;52.416;13.046;2022-09-09T10:32:39;3.10;;;1.42;;
35114;SDS011;21292;52.416;13.046;2022-09-09T10:35:12;4.30;;;1.67;;
35114;SDS011;21292;52.416;13.046;2022-09-09T10:37:49;4.32;;;1.40;;
35114;SDS011;21292;52.416;13.046;2022-09-09T10:40:28;4.85;;;1.33;;
35114;SDS011;21292;52.416;13.046;2022-09-09T10:43:06;4.38;;;1.30;;
35114;SDS011;21292;52.416;13.046;2022-09-09T10:45:47;5.45;;;1.48;;
35114;SDS011;21292;52.416;13.046;2022-09-09T10:51:15;3.63;;;1.30;;
35114;SDS011;21292;52.416;13.046;2022-09-09T10:53:52;8.00;;;1.83;;
35114;SDS011;21292;52.416;13.046;2022-09-09T10:56:28;4.25;;;1.38;;
35114;SDS011;21292;52.416;13.046;2022-09-09T10:58:58;3.47;;;1.00;;
35114;SDS011;21292;52.416;13.046;2022-09-09T11:01:29;3.07;;;0.83;;
35114;SDS011;21292;52.416;13.046;2022-09-09T11:04:02;4.22;;;1.10;;
35114;SDS011;21292;52.416;13.046;2022-09-09T11:06:35;2.88;;;1.35;;
35114;SDS011;21292;52.416;13.046;2022-09-09T11:09:08;4.57;;;1.02;;
35114;SDS011;21292;52.416;13.046;2022-09-09T11:11:46;2.53;;;1.30;;
35114;SDS011;21292;52.416;13.046;2022-09-09T11:14:19;1.95;;;0.93;;
35114;SDS011;21292;52.416;13.046;2022-09-09T11:16:52;4.43;;;1.13;;
35114;SDS011;21292;52.416;13.046;2022-09-09T11:19:24;3.55;;;1.30;;
35114;SDS011;21292;52.416;13.046;2022-09-09T11:21:54;3.30;;;1.15;;
35114;SDS011;21292;52.416;13.046;2022-09-09T11:24:26;4.45;;;1.20;;
35114;SDS011;21292;52.416;13.046;2022-09-09T11:27:01;3.25;;;1.63;;
35114;SDS011;21292;52.416;13.046;2022-09-09T11:29:43;3.97;;;1.10;;
35114;SDS011;21292;52.416;13.046;2022-09-09T11:32:24;7.78;;;1.30;;
35114;SDS011;21292;52.416;13.046;2022-09-09T11:35:10;2.30;;;0.93;;
35114;SDS011;21292;52.416;13.046;2022-09-09T11:37:55;1.45;;;0.90;;
35114;SDS011;21292;52.416;13.046;2022-09-09T11:40:37;2.78;;;0.90;;
35114;SDS011;21292;52.416;13.046;2022-09-09T11:43:10;3.13;;;1.20;;
35114;SDS011;21292;52.416;13.046;2022-09-09T11:45:40;2.97;;;1.33;;
35114;SDS011;21292;52.416;13.046;2022-09-09T11:48:22;3.10;;;1.13;;
35114;SDS011;21292;52.416;13.046;2022-09-09T11:51:00;5.70;;;1.27;;
35114;SDS011;21292;52.416;13.046;2022-09-09T11:53:49;3.47;;;1.30;;
35114;SDS011;21292;52.416;13.046;2022-09-09T11:56:25;4.68;;;1.02;;
35114;SDS011;21292;52.416;13.046;2022-09-09T11:58:57;3.80;;;1.20;;
35114;SDS011;21292;52.416;13.046;2022-09-09T12:01:33;6.60;;;1.27;;
35114;SDS011;21292;52.416;13.046;2022-09-09T12:04:06;5.07;;;1.15;;
35114;SDS011;21292;52.416;13.046;2022-09-09T12:06:49;1.40;;;0.90;;
35114;SDS011;21292;52.416;13.046;2022-09-09T12:09:21;2.80;;;1.15;;
35114;SDS011;21292;52.416;13.046;2022-09-09T12:11:52;2.33;;;1.08;;
35114;SDS011;21292;52.416;13.046;2022-09-09T12:14:23;2.40;;;1.10;;
35114;SDS011;21292;52.416;13.046;2022-09-09T12:17:16;2.70;;;1.30;;
35114;SDS011;21292;52.416;13.046;2022-09-09T12:19:47;6.38;;;1.50;;
35114;SDS011;21292;52.416;13.046;2022-09-09T12:22:19;1.65;;;1.45;;
35114;SDS011;21292;52.416;13.046;2022-09-09T12:24:53;9.77;;;1.52;;
35114;SDS011;21292;52.416;13.046;2022-09-09T12:27:25;4.30;;;1.20;;
35114;SDS011;21292;52.416;13.046;2022-09-09T12:29:58;3.25;;;1.10;;
35114;SDS011;21292;52.416;13.046;2022-09-09T12:32:30;5.07;;;1.55;;
35114;SDS011;21292;52.416;13.046;2022-09-09T12:34:59;3.25;;;1.40;;
35114;SDS011;21292;52.416;13.046;2022-09-09T12:37:29;5.07;;;1.40;;
35114;SDS011;21292;52.416;13.046;2022-09-09T12:40:00;3.13;;;1.20;;
35114;SDS011;21292;52.416;13.046;2022-09-09T12:42:33;6.45;;;1.40;;
35114;SDS011;21292;52.416;13.046;2022-09-09T12:45:19;10.88;;;1.75;;
35114;SDS011;21292;52.416;13.046;2022-09-09T12:47:49;4.65;;;1.60;;
35114;SDS011;21292;52.416;13.046;2022-09-09T12:50:21;4.13;;;1.15;;
35114;SDS011;21292;52.416;13.046;2022-09-09T12:52:52;3.10;;;0.90;;
35114;SDS011;21292;52.416;13.046;2022-09-09T12:55:23;3.00;;;1.10;;
35114;SDS011;21292;52.416;13.046;2022-09-09T12:57:52;3.95;;;1.13;;
35114;SDS011;21292;52.416;13.046;2022-09-09T13:00:23;2.45;;;0.90;;
35114;SDS011;21292;52.416;13.046;2022-09-09T13:05:23;3.75;;;1.10;;
35114;SDS011;21292;52.416;13.046;2022-09-09T13:07:52;4.03;;;1.23;;
35114;SDS011;21292;52.416;13.046;2022-09-09T13:10:29;4.80;;;1.73;;
35114;SDS011;21292;52.416;13.046;2022-09-09T13:13:19;4.25;;;1.42;;
35114;SDS011;21292;52.416;13.046;2022-09-09T13:15:52;4.50;;;1.67;;
35114;SDS011;21292;52.416;13.046;2022-09-09T13:18:23;4.72;;;1.50;;
35114;SDS011;21292;52.416;13.046;2022-09-09T13:20:55;2.85;;;1.13;;
35114;SDS011;21292;52.416;13.046;2022-09-09T13:23:25;2.83;;;1.08;;
35114;SDS011;21292;52.416;13.046;2022-09-09T13:25:56;2.15;;;0.90;;
35114;SDS011;21292;52.416;13.046;2022-09-09T13:28:30;3.70;;;1.25;;
35114;SDS011;21292;52.416;13.046;2022-09-09T13:31:02;6.13;;;1.40;;
35114;SDS011;21292;52.416;13.046;2022-09-09T13:33:32;5.70;;;1.27;;
35114;SDS011;21292;52.416;13.046;2022-09-09T13:36:28;3.15;;;1.10;;
35114;SDS011;21292;52.416;13.046;2022-09-09T13:38:58;2.75;;;1.30;;
35114;SDS011;21292;52.416;13.046;2022-09-09T13:41:28;1.30;;;0.77;;
35114;SDS011;21292;52.416;13.046;2022-09-09T13:43:59;4.75;;;1.25;;
35114;SDS011;21292;52.416;13.046;2022-09-09T13:46:32;3.60;;;1.25;;
35114;SDS011;21292;52.416;13.046;2022-09-09T13:49:03;2.60;;;1.20;;
35114;SDS011;21292;52.416;13.046;2022-09-09T13:51:48;2.70;;;1.17;;
35114;SDS011;21292;52.416;13.046;2022-09-09T13:54:18;5.15;;;1.30;;
35114;SDS011;21292;52.416;13.046;2022-09-09T13:56:47;1.17;;;0.73;;
35114;SDS011;21292;52.416;13.046;2022-09-09T13:59:17;4.22;;;0.88;;
35114;SDS011;21292;52.416;13.046;2022-09-09T14:01:49;2.95;;;0.88;;
35114;SDS011;21292;52.416;13.046;2022-09-09T14:04:28;4.90;;;1.20;;
35114;SDS011;21292;52.416;13.046;2022-09-09T14:06:58;0.98;;;0.68;;
35114;SDS011;21292;52.416;13.046;2022-09-09T14:09:29;1.95;;;0.98;;
35114;SDS011;21292;52.416;13.046;2022-09-09T14:11:57;3.58;;;1.08;;
35114;SDS011;21292;52.416;13.046;2022-09-09T14:14:25;6.82;;;1.20;;
35114;SDS011;21292;52.416;13.046;2022-09-09T14:16:54;2.78;;;0.98;;
35114;SDS011;21292;52.416;13.046;2022-09-09T14:19:23;6.50;;;1.00;;
35114;SDS011;21292;52.416;13.046;2022-09-09T14:21:52;1.55;;;0.77;;
35114;SDS011;21292;52.416;13.046;2022-09-09T14:24:21;2.47;;;1.40;;
35114;SDS011;21292;52.416;13.046;2022-09-09T14:26:51;5.55;;;1.10;;
35114;SDS011;21292;52.416;13.046;2022-09-09T14:29:19;3.15;;;0.90;;
35114;SDS011;21292;52.416;13.046;2022-09-09T14:32:09;4.53;;;1.35;;
35114;SDS011;21292;52.416;13.046;2022-09-09T14:34:57;6.18;;;1.27;;
35114;SDS011;21292;52.416;13.046;2022-09-09T14:37:34;3.38;;;1.08;;
35114;SDS011;21292;52.416;13.046;2022-09-09T14:40:17;6.50;;;1.27;;
35114;SDS011;21292;52.416;13.046;2022-09-09T14:42:49;5.15;;;1.13;;
35114;SDS011;21292;52.416;13.046;2022-09-09T14:45:18;4.25;;;1.25;;
35114;SDS011;21292;52.416;13.046;2022-09-09T14:47:50;2.42;;;1.05;;
35114;SDS011;21292;52.416;13.046;2022-09-09T14:50:19;2.10;;;1.05;;
35114;SDS011;21292;52.416;13.046;2022-09-09T14:52:47;5.20;;;1.20;;
35114;SDS011;21292;52.416;13.046;2022-09-09T14:55:17;5.07;;;1.08;;
35114;SDS011;21292;52.416;13.046;2022-09-09T14:57:45;3.35;;;1.17;;
35114;SDS011;21292;52.416;13.046;2022-09-09T15:00:14;3.28;;;1.10;;
35114;SDS011;21292;52.416;13.046;2022-09-09T15:02:43;3.22;;;1.45;;
35114;SDS011;21292;52.416;13.046;2022-09-09T15:05:14;4.18;;;1.20;;
35114;SDS011;21292;52.416;13.046;2022-09-09T15:07:43;6.00;;;1.25;;
35114;SDS011;21292;52.416;13.046;2022-09-09T15:10:14;7.82;;;1.30;;
35114;SDS011;21292;52.416;13.046;2022-09-09T15:12:43;5.07;;;1.33;;
35114;SDS011;21292;52.416;13.046;2022-09-09T15:15:12;2.55;;;1.02;;